Time;durP1;ratioP1;P1;durP2;ratioP2;P2;SDS_P1;SDS_P2;PMS_P1;PMS_P2;Temp;Humidity;BMP_temperature;BMP_pressure;BME280_temperature;BME280_humidity;BME280_pressure;Samples;Min_cycle;Max_cycle;Signal;HPM_P1;HPM_P2
2021/12/12 00:00:53;;;;;;;44.13;18.00;;;;;;;-4.19;100.00;101509.78;5024631;28;20453;-70
2021/12/12 00:03:34;;;;;;;41.53;19.50;;;;;;;-4.22;100.00;101511.28;5030381;28;20462;-69
2021/12/12 00:06:06;;;;;;;93.90;22.90;;;;;;;-4.31;100.00;101509.19;5027433;28;20976;-70
2021/12/12 00:08:33;;;;;;;44.87;17.93;;;;;;;-4.32;100.00;101509.13;5029827;28;21310;-71
2021/12/12 00:11:04;;;;;;;49.87;21.20;;;;;;;-4.45;100.00;101522.91;5026681;28;20499;-69
2021/12/12 00:13:34;;;;;;;44.97;18.07;;;;;;;-4.46;100.00;101516.09;5029600;28;20445;-71
2021/12/12 00:16:00;;;;;;;40.07;19.00;;;;;;;-4.60;100.00;101523.91;5028432;28;20477;-70
2021/12/12 00:18:27;;;;;;;41.67;18.23;;;;;;;-4.64;100.00;101529.66;5033277;28;20463;-71
2021/12/12 00:20:53;;;;;;;50.10;21.33;;;;;;;-4.65;100.00;101527.03;5026189;28;22519;-70
2021/12/12 00:23:21;;;;;;;43.97;19.17;;;;;;;-4.71;100.00;101527.59;5029648;28;20460;-70
2021/12/12 00:25:56;;;;;;;43.43;18.57;;;;;;;-4.77;100.00;101528.16;5026997;28;20459;-71
2021/12/12 00:28:23;;;;;;;47.50;17.90;;;;;;;-4.86;100.00;101527.69;5028673;28;21003;-69
2021/12/12 00:30:51;;;;;;;40.07;18.03;;;;;;;-4.91;100.00;101518.06;5028288;28;20928;-70
2021/12/12 00:33:20;;;;;;;35.93;17.17;;;;;;;-4.91;100.00;101523.16;5028609;28;20528;-71
2021/12/12 00:35:46;;;;;;;29.60;14.90;;;;;;;-4.82;100.00;101523.63;5025695;28;20533;-71
2021/12/12 00:38:17;;;;;;;35.83;17.73;;;;;;;-4.90;100.00;101519.81;5030287;28;20448;-70
2021/12/12 00:40:50;;;;;;;38.53;18.10;;;;;;;-5.05;100.00;101518.22;5026466;28;20482;-70
2021/12/12 00:43:23;;;;;;;35.00;17.17;;;;;;;-5.05;100.00;101522.44;5031758;28;20448;-70
2021/12/12 00:45:50;;;;;;;39.67;18.10;;;;;;;-5.03;100.00;101511.56;5029494;28;20993;-71
2021/12/12 00:48:17;;;;;;;31.40;15.80;;;;;;;-5.23;100.00;101507.13;5027475;28;20465;-71
2021/12/12 00:50:44;;;;;;;32.63;16.07;;;;;;;-5.26;100.00;101514.56;5027769;28;20479;-71
2021/12/12 00:53:12;;;;;;;33.33;17.13;;;;;;;-5.33;100.00;101514.28;5028776;28;20460;-70
2021/12/12 00:55:41;;;;;;;34.57;16.43;;;;;;;-5.35;100.00;101513.31;5026640;28;20454;-71
2021/12/12 00:58:11;;;;;;;28.20;15.03;;;;;;;-5.41;100.00;101505.34;5027150;28;20451;-70
2021/12/12 01:00:48;;;;;;;32.70;16.17;;;;;;;-5.48;100.00;101504.97;5029507;28;20903;-70
2021/12/12 01:03:17;;;;;;;32.20;16.23;;;;;;;-5.50;100.00;101507.41;5028539;28;20936;-70
2021/12/12 01:05:46;;;;;;;30.97;15.30;;;;;;;-5.49;100.00;101505.75;5028783;28;20458;-70
2021/12/12 01:08:14;;;;;;;31.67;16.00;;;;;;;-5.49;100.00;101513.38;5028133;28;20513;-69
2021/12/12 01:10:44;;;;;;;30.93;15.70;;;;;;;-5.55;100.00;101509.72;5028632;28;20561;-70
2021/12/12 01:13:13;;;;;;;31.10;15.53;;;;;;;-5.57;100.00;101506.22;5027968;28;21104;-71
2021/12/12 01:15:44;;;;;;;31.90;16.40;;;;;;;-5.67;100.00;101524.28;5027633;28;20459;-70
2021/12/12 01:18:16;;;;;;;29.97;15.63;;;;;;;-5.64;100.00;101523.59;5027086;28;20800;-71
2021/12/12 01:20:50;;;;;;;35.00;17.67;;;;;;;-5.62;100.00;101516.94;5028258;28;20496;-70
2021/12/12 01:23:21;;;;;;;35.97;17.33;;;;;;;-5.72;100.00;101524.06;5028870;28;21024;-70
2021/12/12 01:25:49;;;;;;;37.17;16.40;;;;;;;-5.61;100.00;101539.88;5028169;28;20466;-70
2021/12/12 01:28:20;;;;;;;37.57;16.87;;;;;;;-5.73;100.00;101542.63;5027477;28;20819;-69
2021/12/12 01:30:48;;;;;;;35.23;17.60;;;;;;;-5.69;100.00;101542.81;5027688;28;20975;-70
2021/12/12 01:33:26;;;;;;;38.70;18.40;;;;;;;-5.61;100.00;101539.88;5025093;28;20458;-70
2021/12/12 01:35:54;;;;;;;40.93;18.57;;;;;;;-5.59;100.00;101538.28;5028574;28;20481;-70
2021/12/12 01:41:08;;;;;;;40.00;18.97;;;;;;;-5.65;100.00;101542.16;5017744;28;20474;-70
2021/12/12 01:43:42;;;;;;;39.40;19.83;;;;;;;-5.66;100.00;101550.56;5025410;28;20837;-70
2021/12/12 01:46:18;;;;;;;41.50;18.07;;;;;;;-5.65;100.00;101553.19;5024834;28;20455;-70
2021/12/12 01:48:48;;;;;;;46.27;20.47;;;;;;;-5.55;100.00;101550.38;5025474;28;20815;-70
2021/12/12 01:51:16;;;;;;;40.63;19.13;;;;;;;-5.55;100.00;101550.38;5030143;28;20462;-71
2021/12/12 01:53:46;;;;;;;35.53;17.67;;;;;;;-5.43;100.00;101549.28;5026644;28;20458;-71
2021/12/12 01:56:18;;;;;;;38.50;17.93;;;;;;;-5.40;100.00;101550.34;5028212;28;20455;-71
2021/12/12 01:58:49;;;;;;;40.17;18.87;;;;;;;-5.40;100.00;101550.34;5024283;28;20517;-71
2021/12/12 02:01:21;;;;;;;41.43;20.07;;;;;;;-5.39;100.00;101549.53;5044374;28;20462;-71
2021/12/12 02:03:54;;;;;;;38.40;17.20;;;;;;;-5.38;100.00;101551.28;5026726;28;20464;-70
2021/12/12 02:06:23;;;;;;;41.23;19.10;;;;;;;-5.25;100.00;101541.75;5026709;28;20454;-71
2021/12/12 02:08:52;;;;;;;40.57;19.00;;;;;;;-5.20;100.00;101546.28;5022855;28;20490;-71
2021/12/12 02:11:22;;;;;;;41.10;19.40;;;;;;;-5.17;100.00;101549.00;5026605;28;20447;-71
2021/12/12 02:13:54;;;;;;;42.57;19.97;;;;;;;-5.18;100.00;101549.78;5025850;28;20971;-70
2021/12/12 02:16:25;;;;;;;44.63;19.57;;;;;;;-5.11;100.00;101545.91;5027968;28;20460;-70
2021/12/12 02:18:55;;;;;;;47.50;20.90;;;;;;;-5.09;100.00;101543.44;5023519;28;20929;-70
2021/12/12 02:21:31;;;;;;;44.80;19.63;;;;;;;-5.09;100.00;101543.44;5026359;28;20462;-71
2021/12/12 02:24:35;;;;;;;40.37;21.27;;;;;;;-5.02;100.00;101548.03;5026146;28;20475;-70
2021/12/12 02:35:25;;;;;;;41.63;20.40;;;;;;;-4.86;100.00;101519.19;5026662;28;20551;-71
2021/12/12 02:37:55;;;;;;;43.63;20.47;;;;;;;-4.88;100.00;101510.59;5025318;28;20463;-69
2021/12/12 02:40:26;;;;;;;42.57;19.67;;;;;;;-4.86;100.00;101514.97;5023620;28;20458;-71
2021/12/12 02:42:53;;;;;;;45.83;20.23;;;;;;;-4.89;100.00;101514.81;5026617;28;20436;-70
2021/12/12 02:45:22;;;;;;;40.37;19.13;;;;;;;-4.88;100.00;101515.69;5026918;28;20544;-70
2021/12/12 02:47:54;;;;;;;35.53;18.70;;;;;;;-4.94;100.00;101516.25;5026041;28;20465;-70
2021/12/12 02:50:25;;;;;;;39.40;17.70;;;;;;;-4.92;100.00;101516.31;5026331;28;20868;-71
2021/12/12 02:52:55;;;;;;;38.53;18.57;;;;;;;-4.97;100.00;101513.53;5027027;28;20477;-70
2021/12/12 02:55:27;;;;;;;37.13;17.67;;;;;;;-4.97;100.00;101516.97;5024765;28;20458;-70
2021/12/12 02:57:54;;;;;;;38.37;18.73;;;;;;;-5.03;100.00;101524.28;5026645;28;20964;-71
2021/12/12 03:00:26;;;;;;;34.77;17.33;;;;;;;-5.05;100.00;101523.31;5024508;28;20478;-71
2021/12/12 03:02:57;;;;;;;37.87;18.53;;;;;;;-5.13;100.00;101517.84;5026749;28;20465;-71
2021/12/12 03:05:26;;;;;;;36.10;17.73;;;;;;;-5.19;100.00;101527.72;5027302;28;20991;-71
2021/12/12 03:07:54;;;;;;;39.33;17.93;;;;;;;-5.24;100.00;101534.22;5026889;28;20471;-71
2021/12/12 03:10:26;;;;;;;32.97;17.47;;;;;;;-5.27;100.00;101528.09;5022937;28;20478;-70
2021/12/12 03:12:53;;;;;;;31.47;16.47;;;;;;;-5.33;100.00;101529.53;5026734;28;20469;-70
2021/12/12 03:15:24;;;;;;;33.43;17.07;;;;;;;-5.30;100.00;101541.50;5023952;28;20489;-69
2021/12/12 03:17:54;;;;;;;33.63;16.67;;;;;;;-5.30;100.00;101541.50;5026535;28;21086;-70
2021/12/12 03:20:25;;;;;;;35.13;16.80;;;;;;;-5.38;100.00;101541.13;5025813;28;20470;-70
2021/12/12 03:22:54;;;;;;;32.27;18.43;;;;;;;-5.46;100.00;101550.00;5024748;28;20446;-71
2021/12/12 03:25:22;;;;;;;33.63;16.50;;;;;;;-5.48;100.00;101554.13;5022834;28;20473;-70
2021/12/12 03:27:51;;;;;;;35.67;15.90;;;;;;;-5.43;100.00;101559.47;5026777;28;20954;-70
2021/12/12 03:30:19;;;;;;;32.87;16.73;;;;;;;-5.48;100.00;101564.28;5025225;28;20484;-71
2021/12/12 03:32:45;;;;;;;31.33;15.70;;;;;;;-5.45;100.00;101561.03;5030653;28;20450;-70
2021/12/12 03:35:12;;;;;;;32.57;15.77;;;;;;;-5.56;100.00;101552.81;5026960;28;20457;-70
2021/12/12 03:37:40;;;;;;;37.27;16.03;;;;;;;-5.69;100.00;101548.75;5026235;28;20446;-70
2021/12/12 03:40:12;;;;;;;34.07;16.40;;;;;;;-5.73;100.00;101542.63;5027885;28;20998;-71
2021/12/12 03:42:38;;;;;;;32.70;16.07;;;;;;;-5.76;100.00;101549.22;5026260;28;20847;-70
2021/12/12 03:45:08;;;;;;;34.10;15.90;;;;;;;-5.81;100.00;101543.00;5025334;28;20458;-70
2021/12/12 03:47:38;;;;;;;32.33;15.43;;;;;;;-5.87;100.00;101550.25;5023904;28;20470;-71
2021/12/12 03:50:09;;;;;;;32.63;15.33;;;;;;;-5.85;100.00;101543.63;5028135;28;20478;-70
2021/12/12 03:52:36;;;;;;;34.20;16.07;;;;;;;-5.91;100.00;101550.13;5026870;28;20450;-70
2021/12/12 03:55:05;;;;;;;33.50;17.30;;;;;;;-5.84;100.00;101540.28;5026292;28;20466;-70
2021/12/12 03:57:32;;;;;;;37.50;17.47;;;;;;;-5.83;100.00;101537.81;5025302;28;20934;-71
2021/12/12 03:59:59;;;;;;;27.97;15.37;;;;;;;-5.88;100.00;101551.06;5026308;28;20462;-71
2021/12/12 04:02:28;;;;;;;31.87;16.77;;;;;;;-5.93;100.00;101548.28;5026417;28;20456;-70
2021/12/12 04:04:55;;;;;;;32.70;15.73;;;;;;;-5.91;100.00;101552.66;5027723;28;20462;-69
2021/12/12 04:07:24;;;;;;;35.90;16.60;;;;;;;-5.91;100.00;101552.66;5026318;28;20475;-70
2021/12/12 04:09:51;;;;;;;30.50;16.73;;;;;;;-5.88;100.00;101551.94;5025608;28;20955;-70
2021/12/12 04:12:21;;;;;;;30.57;16.47;;;;;;;-5.92;100.00;101557.66;5025067;28;20923;-70
2021/12/12 04:14:49;;;;;;;36.90;17.53;;;;;;;-5.85;100.00;101566.50;5023719;28;20457;-71
2021/12/12 04:17:19;;;;;;;35.70;16.23;;;;;;;-5.91;100.00;101567.00;5023146;28;20458;-71
2021/12/12 04:19:52;;;;;;;28.63;16.17;;;;;;;-5.88;100.00;101566.31;5025544;28;20864;-70
2021/12/12 04:22:19;;;;;;;36.10;16.03;;;;;;;-5.83;100.00;101560.69;5027498;28;20450;-71
2021/12/12 04:24:48;;;;;;;37.23;15.70;;;;;;;-5.91;100.00;101560.28;5027559;28;20461;-71
2021/12/12 04:27:17;;;;;;;33.47;16.60;;;;;;;-5.91;100.00;101562.81;5028476;28;20958;-70
2021/12/12 04:29:47;;;;;;;31.40;15.40;;;;;;;-5.90;100.00;101567.09;5029068;28;20482;-70
2021/12/12 04:32:18;;;;;;;33.67;16.27;;;;;;;-5.90;100.00;101567.09;5025833;28;20451;-70
2021/12/12 04:34:48;;;;;;;33.37;16.53;;;;;;;-5.87;100.00;101573.13;5026844;28;21137;-71
2021/12/12 04:37:15;;;;;;;32.83;15.60;;;;;;;-5.89;100.00;101573.06;5029404;28;20461;-70
2021/12/12 04:39:46;;;;;;;36.17;16.03;;;;;;;-5.88;100.00;101567.19;5028440;28;21049;-70
2021/12/12 04:42:17;;;;;;;31.47;15.53;;;;;;;-5.82;100.00;101569.19;5029803;28;20442;-70
2021/12/12 04:45:26;;;;;;;28.90;14.67;;;;;;;-5.82;100.00;101574.25;5028979;28;20914;-70
2021/12/12 04:50:51;;;;;;;32.57;14.67;;;;;;;-5.95;100.00;101575.25;5029561;28;20470;-70
2021/12/12 04:53:23;;;;;;;30.70;15.73;;;;;;;-5.91;100.00;101580.59;5028260;28;20457;-70
2021/12/12 04:55:56;;;;;;;29.50;14.40;;;;;;;-5.97;100.00;101582.81;5029755;28;20512;-70
2021/12/12 04:58:30;;;;;;;29.27;14.53;;;;;;;-5.99;100.00;101591.16;5028364;28;20450;-69
2021/12/12 05:01:01;;;;;;;31.93;14.67;;;;;;;-6.02;100.00;101586.75;5030691;28;20504;-71
2021/12/12 05:03:35;;;;;;;35.77;15.17;;;;;;;-6.02;100.00;101591.84;5029254;28;20900;-70
2021/12/12 05:06:08;;;;;;;34.07;15.23;;;;;;;-6.01;100.00;101596.13;5028939;28;20465;-71
2021/12/12 05:08:40;;;;;;;25.80;13.00;;;;;;;-6.03;100.00;101592.63;5026416;28;20454;-69
2021/12/12 05:11:10;;;;;;;32.63;15.73;;;;;;;-6.05;100.00;101595.88;5028370;28;20827;-70
2021/12/12 05:13:41;;;;;;;30.10;14.73;;;;;;;-6.04;100.00;101600.16;5027488;28;20458;-69
2021/12/12 05:16:11;;;;;;;29.47;15.37;;;;;;;-6.02;100.00;101596.06;5030167;28;20457;-70
2021/12/12 05:18:47;;;;;;;32.27;14.73;;;;;;;-6.00;100.00;101604.63;5028585;28;20827;-70
2021/12/12 05:21:18;;;;;;;32.27;15.33;;;;;;;-6.01;100.00;101606.28;5029085;28;20808;-70
2021/12/12 05:23:48;;;;;;;28.80;15.07;;;;;;;-6.01;100.00;101619.00;5027728;28;20786;-71
2021/12/12 05:26:19;;;;;;;32.27;14.90;;;;;;;-6.02;100.00;101619.78;5028684;28;20459;-71
2021/12/12 05:28:51;;;;;;;33.67;16.40;;;;;;;-5.96;100.00;101614.16;5026569;28;20478;-71
2021/12/12 05:31:20;;;;;;;34.53;15.07;;;;;;;-5.89;100.00;101613.72;5029123;28;20467;-70
2021/12/12 05:33:51;;;;;;;33.47;15.40;;;;;;;-5.90;100.00;101614.47;5026818;28;20458;-70
2021/12/12 05:36:19;;;;;;;33.53;16.07;;;;;;;-5.87;100.00;101609.59;5028114;28;20455;-69
2021/12/12 05:38:47;;;;;;;39.47;16.83;;;;;;;-5.86;100.00;101613.00;5030273;28;20466;-70
2021/12/12 05:41:14;;;;;;;41.13;17.00;;;;;;;-5.82;100.00;101622.53;5026930;28;20472;-71
2021/12/12 05:43:41;;;;;;;33.27;16.87;;;;;;;-5.83;100.00;101621.66;5025932;28;20455;-71
2021/12/12 05:46:08;;;;;;;37.00;17.40;;;;;;;-5.81;100.00;101625.16;5028596;28;21030;-70
2021/12/12 05:48:35;;;;;;;37.37;17.53;;;;;;;-5.77;100.00;101616.03;5026396;28;20906;-70
2021/12/12 05:51:01;;;;;;;38.57;17.53;;;;;;;-5.74;100.00;101618.75;5027797;28;20470;-70
2021/12/12 05:53:29;;;;;;;40.47;17.43;;;;;;;-5.77;100.00;101618.59;5027280;28;20468;-71
2021/12/12 05:55:57;;;;;;;38.97;17.03;;;;;;;-5.77;100.00;101619.47;5044009;28;20455;-70
2021/12/12 05:58:23;;;;;;;37.77;17.57;;;;;;;-5.76;100.00;101622.88;5027161;28;20528;-70
2021/12/12 06:00:53;;;;;;;36.20;17.17;;;;;;;-5.73;100.00;101630.69;5026491;28;20477;-70
2021/12/12 06:03:23;;;;;;;35.07;16.27;;;;;;;-5.81;100.00;101639.53;5025805;28;20458;-69
2021/12/12 06:05:51;;;;;;;33.73;16.47;;;;;;;-5.76;100.00;101640.66;5028319;28;20966;-70
2021/12/12 06:08:20;;;;;;;48.17;21.40;;;;;;;-5.76;100.00;101638.13;5028605;28;20451;-71
2021/12/12 06:10:49;;;;;;;35.40;17.60;;;;;;;-5.78;100.00;101632.97;5026481;28;21011;-70
2021/12/12 06:13:18;;;;;;;37.00;18.30;;;;;;;-5.77;100.00;101646.53;5039822;28;21076;-71
2021/12/12 06:15:48;;;;;;;37.83;17.20;;;;;;;-5.76;100.00;101648.28;5026207;28;20458;-71
2021/12/12 06:18:15;;;;;;;32.37;16.40;;;;;;;-5.76;100.00;101644.06;5025745;28;20453;-69
2021/12/12 06:20:43;;;;;;;31.47;15.30;;;;;;;-5.71;100.00;101645.22;5026912;28;20470;-71
2021/12/12 06:23:10;;;;;;;36.97;16.80;;;;;;;-5.72;100.00;101643.47;5025165;28;20947;-71
2021/12/12 06:25:39;;;;;;;31.00;15.07;;;;;;;-5.68;100.00;101653.78;5027202;28;20462;-70
2021/12/12 06:28:10;;;;;;;32.90;15.60;;;;;;;-5.68;100.00;101658.88;5025749;28;20761;-71
2021/12/12 06:30:38;;;;;;;33.57;15.57;;;;;;;-5.62;100.00;101657.56;5030814;28;20479;-71
2021/12/12 06:33:05;;;;;;;34.17;15.77;;;;;;;-5.64;100.00;101653.19;5026545;28;20457;-71
2021/12/12 06:35:32;;;;;;;32.30;15.47;;;;;;;-5.60;100.00;101652.56;5027038;28;20465;-70
2021/12/12 06:38:02;;;;;;;37.57;17.73;;;;;;;-5.61;100.00;101655.88;5024612;28;20478;-71
2021/12/12 06:40:30;;;;;;;35.40;17.60;;;;;;;-5.56;100.00;101670.63;5027125;28;20469;-71
2021/12/12 06:42:59;;;;;;;38.43;17.90;;;;;;;-5.57;100.00;101666.31;5025345;28;20443;-71
2021/12/12 06:45:27;;;;;;;35.97;17.43;;;;;;;-5.55;100.00;101663.88;5025567;28;20828;-70
2021/12/12 06:47:55;;;;;;;41.43;18.67;;;;;;;-5.58;100.00;101674.72;5025257;28;20843;-70
2021/12/12 06:50:23;;;;;;;37.30;18.90;;;;;;;-5.56;100.00;101672.28;5027902;28;21021;-71
2021/12/12 06:52:51;;;;;;;40.93;20.90;;;;;;;-5.54;100.00;101671.59;5021787;28;20465;-70
2021/12/12 06:55:19;;;;;;;42.77;18.60;;;;;;;-5.48;100.00;101670.19;5026444;28;20995;-69
2021/12/12 06:57:46;;;;;;;60.57;25.93;;;;;;;-5.42;100.00;101666.28;5024949;28;20542;-69
2021/12/12 07:00:16;;;;;;;53.73;26.23;;;;;;;-5.43;100.00;101671.31;5026450;28;20466;-69
2021/12/12 07:02:46;;;;;;;61.83;25.40;;;;;;;-5.32;100.00;101672.75;5023760;28;20480;-69
2021/12/12 07:05:17;;;;;;;55.53;24.60;;;;;;;-5.32;100.00;101672.75;5026271;28;20946;-69
2021/12/12 07:07:45;;;;;;;43.37;20.60;;;;;;;-5.28;100.00;101674.66;5023387;28;20446;-71
2021/12/12 07:10:15;;;;;;;44.20;19.53;;;;;;;-5.22;100.00;101667.41;5026287;28;20479;-70
2021/12/12 07:12:43;;;;;;;40.43;19.63;;;;;;;-5.21;100.00;101669.13;5026968;28;20462;-70
2021/12/12 07:15:12;;;;;;;37.47;17.70;;;;;;;-5.17;100.00;101673.59;5028236;28;20461;-69
2021/12/12 07:17:39;;;;;;;45.67;18.20;;;;;;;-5.13;100.00;101675.53;5025716;28;20459;-70
2021/12/12 07:20:11;;;;;;;40.93;20.03;;;;;;;-5.06;100.00;101681.81;5024326;28;20473;-70
2021/12/12 07:22:38;;;;;;;46.43;22.57;;;;;;;-5.03;100.00;101684.53;5024437;28;20466;-70
2021/12/12 07:25:08;;;;;;;42.60;21.93;;;;;;;-4.97;100.00;101682.31;5025575;28;20461;-71
2021/12/12 07:27:35;;;;;;;48.73;20.10;;;;;;;-4.95;100.00;101682.38;5024701;28;20464;-70
2021/12/12 07:30:02;;;;;;;47.10;20.07;;;;;;;-4.91;100.00;101689.38;5024364;28;20840;-70
2021/12/12 07:32:31;;;;;;;40.90;19.47;;;;;;;-4.83;100.00;101683.03;5024625;28;20478;-70
2021/12/12 07:35:00;;;;;;;42.43;19.93;;;;;;;-4.73;100.00;101675.91;5027049;28;20992;-71
2021/12/12 07:37:30;;;;;;;39.60;18.20;;;;;;;-4.71;100.00;101675.19;5024119;28;20999;-71
2021/12/12 07:39:57;;;;;;;42.67;18.13;;;;;;;-4.69;100.00;101673.59;5025298;28;20474;-70
2021/12/12 07:42:23;;;;;;;44.37;20.30;;;;;;;-4.66;100.00;101685.59;5024022;28;20467;-70
2021/12/12 07:44:49;;;;;;;46.30;19.90;;;;;;;-4.58;100.00;101684.34;5025516;28;20463;-70
2021/12/12 07:47:17;;;;;;;44.23;20.27;;;;;;;-4.54;100.00;101682.84;5018354;28;20455;-70
2021/12/12 07:49:47;;;;;;;42.80;21.40;;;;;;;-4.50;100.00;101690.72;5026086;28;20548;-69
2021/12/12 07:52:17;;;;;;;44.97;22.33;;;;;;;-4.44;100.00;101691.03;5025961;28;20475;-70
2021/12/12 07:54:48;;;;;;;58.23;25.43;;;;;;;-4.35;100.00;101692.31;5028445;28;20458;-71
2021/12/12 07:57:15;;;;;;;47.90;24.00;;;;;;;-4.34;100.00;101688.94;5027757;28;20469;-70
2021/12/12 07:59:43;;;;;;;45.37;22.93;;;;;;;-4.28;100.00;101695.22;5028469;28;20482;-71
2021/12/12 08:02:12;;;;;;;43.57;20.93;;;;;;;-4.19;100.00;101695.72;5025567;28;20453;-70
2021/12/12 08:04:39;;;;;;;50.60;23.50;;;;;;;-4.09;100.00;101698.72;5029786;28;20466;-71
2021/12/12 08:07:09;;;;;;;46.60;23.17;;;;;;;-4.01;100.00;101695.78;5027665;28;20465;-70
2021/12/12 08:09:42;;;;;;;41.67;20.63;;;;;;;-3.90;100.00;101690.34;5028288;28;20492;-71
2021/12/12 08:12:11;;;;;;;55.13;23.27;;;;;;;-3.78;100.00;101700.25;5031624;28;20858;-71
2021/12/12 08:14:37;;;;;;;43.40;20.87;;;;;;;-3.68;100.00;101708.41;5025296;28;20479;-71
2021/12/12 08:17:06;;;;;;;50.57;22.97;;;;;;;-3.57;100.00;101702.97;5024081;28;20472;-71
2021/12/12 08:19:34;;;;;;;59.00;25.30;;;;;;;-3.50;100.00;101702.47;5026667;28;20513;-69
2021/12/12 08:22:07;;;;;;;62.27;25.57;;;;;;;-3.44;100.00;101698.53;5024252;28;20477;-71
2021/12/12 08:24:38;;;;;;;52.23;24.20;;;;;;;-3.32;100.00;101700.81;5027597;28;20470;-69
2021/12/12 08:27:07;;;;;;;53.90;24.10;;;;;;;-3.22;100.00;101706.34;5024980;28;20499;-70
2021/12/12 08:29:36;;;;;;;60.67;25.10;;;;;;;-3.14;100.00;101695.69;5025772;28;20973;-70
2021/12/12 08:32:04;;;;;;;53.33;21.83;;;;;;;-3.06;100.00;101698.59;5026588;28;20485;-71
2021/12/12 08:34:31;;;;;;;49.67;21.90;;;;;;;-2.98;100.00;101694.72;5031357;28;21236;-71
2021/12/12 08:36:58;;;;;;;48.17;21.33;;;;;;;-2.92;100.00;101694.13;5022321;28;20454;-70
2021/12/12 08:39:27;;;;;;;56.43;23.60;;;;;;;-2.84;100.00;101695.38;5025692;28;20536;-70
2021/12/12 08:41:55;;;;;;;50.97;22.10;;;;;;;-2.76;100.00;101691.50;5027392;28;20552;-71
2021/12/12 08:44:23;;;;;;;50.77;23.00;;;;;;;-2.69;100.00;101690.06;5025749;28;20207;-70
2021/12/12 08:46:55;;;;;;;48.33;22.77;;;;;;;-2.60;100.00;101699.81;5026183;28;21132;-71
2021/12/12 08:49:25;;;;;;;50.90;23.13;;;;;;;-2.54;100.00;101690.75;5025184;28;20481;-71
2021/12/12 08:51:55;;;;;;;51.67;22.97;;;;;;;-2.47;100.00;101690.22;5023265;28;20483;-70
2021/12/12 08:54:27;;;;;;;51.03;22.93;;;;;;;-2.40;100.00;101687.94;5022961;28;20290;-69
2021/12/12 08:57:02;;;;;;;52.50;22.73;;;;;;;-2.36;100.00;101693.25;5023432;28;20216;-71
2021/12/12 08:59:32;;;;;;;55.37;24.50;;;;;;;-2.29;100.00;101690.19;5025663;28;20222;-70
2021/12/12 09:02:03;;;;;;;44.70;22.07;;;;;;;-2.21;100.00;101684.53;5026371;28;20231;-72
2021/12/12 09:04:35;;;;;;;53.63;22.80;;;;;;;-2.16;100.00;101690.69;5027182;28;20546;-71
2021/12/12 09:07:06;;;;;;;48.37;21.80;;;;;;;-2.07;100.00;101685.09;5042250;28;20616;-70
2021/12/12 09:09:38;;;;;;;52.13;22.70;;;;;;;-1.99;100.00;101683.72;5026588;28;20219;-71
2021/12/12 09:12:09;;;;;;;50.90;22.10;;;;;;;-1.95;100.00;101685.63;5027065;28;20230;-71
2021/12/12 09:14:38;;;;;;;53.90;23.27;;;;;;;-1.87;100.00;101680.81;5025214;28;20208;-70
2021/12/12 09:17:10;;;;;;;67.67;29.40;;;;;;;-1.81;100.00;101678.50;5024609;28;20226;-70
2021/12/12 09:19:41;;;;;;;70.07;31.47;;;;;;;-1.77;100.00;101681.25;5025165;28;20246;-71
2021/12/12 09:22:12;;;;;;;63.43;29.07;;;;;;;-1.74;100.00;101685.66;5024970;28;20208;-71
2021/12/12 09:24:46;;;;;;;65.97;29.70;;;;;;;-1.69;100.00;101689.22;5020538;28;20337;-69
2021/12/12 09:27:17;;;;;;;51.77;24.00;;;;;;;-1.65;100.00;101685.13;5021960;28;20616;-71
2021/12/12 09:29:51;;;;;;;53.50;24.80;;;;;;;-1.61;100.00;101679.34;5022181;28;20760;-71
2021/12/12 09:32:27;;;;;;;52.30;22.83;;;;;;;-1.60;100.00;101674.28;5023277;28;20227;-71
2021/12/12 09:34:58;;;;;;;57.77;25.10;;;;;;;-1.54;100.00;101684.75;5027173;28;20203;-71
2021/12/12 09:37:30;;;;;;;58.67;25.47;;;;;;;-1.53;100.00;101680.50;5023190;28;20197;-71
2021/12/12 09:40:00;;;;;;;48.60;22.63;;;;;;;-1.47;100.00;101685.00;5027731;28;20212;-71
2021/12/12 09:42:57;;;;;;;44.10;20.10;;;;;;;-1.45;100.00;101675.69;5023906;28;20200;-71
2021/12/12 09:45:42;;;;;;;41.63;20.73;;;;;;;-1.38;100.00;101673.44;5024965;28;20210;-70
2021/12/12 09:51:33;;;;;;;44.63;20.10;;;;;;;-1.27;100.00;101663.63;5023772;28;20227;-69
2021/12/12 09:54:15;;;;;;;41.50;20.77;;;;;;;-1.22;100.00;101654.44;5026882;28;20944;-71
2021/12/12 09:56:49;;;;;;;47.03;21.80;;;;;;;-1.16;100.00;101656.38;5025388;28;20203;-71
2021/12/12 09:59:28;;;;;;;47.00;20.73;;;;;;;-1.13;100.00;101651.34;5025166;28;20211;-70
2021/12/12 10:02:06;;;;;;;45.03;20.13;;;;;;;-1.13;100.00;101650.50;5025844;28;20299;-71
2021/12/12 10:04:49;;;;;;;53.40;25.13;;;;;;;-1.12;100.00;101645.44;5026880;28;20304;-69
2021/12/12 10:07:25;;;;;;;45.57;21.57;;;;;;;-1.10;100.00;101643.78;5025000;28;20209;-70
2021/12/12 10:09:56;;;;;;;42.03;20.37;;;;;;;-1.06;100.00;101632.84;5026898;28;20235;-71
2021/12/12 10:12:27;;;;;;;47.23;22.17;;;;;;;-1.04;100.00;101635.47;5024103;28;20222;-71
2021/12/12 10:15:04;;;;;;;42.23;20.20;;;;;;;-1.04;100.00;101630.34;5025230;28;20299;-70
2021/12/12 10:17:38;;;;;;;42.17;19.97;;;;;;;-1.00;100.00;101622.84;5022964;28;20265;-72
2021/12/12 10:20:10;;;;;;;41.10;18.23;;;;;;;-0.97;100.00;101625.53;5022031;28;20725;-71
2021/12/12 10:22:52;;;;;;;37.30;19.20;;;;;;;-0.91;100.00;101626.56;5024333;28;20675;-71
2021/12/12 10:25:24;;;;;;;42.37;19.23;;;;;;;-0.84;100.00;101623.41;5024154;28;20208;-71
2021/12/12 10:27:59;;;;;;;37.90;17.60;;;;;;;-0.81;100.00;101614.16;5025332;28;20207;-71
2021/12/12 10:30:29;;;;;;;39.77;18.80;;;;;;;-0.74;100.00;101611.81;5019434;28;20227;-71
2021/12/12 10:33:02;;;;;;;38.37;18.67;;;;;;;-0.66;100.00;101611.25;5023183;28;20208;-71
2021/12/12 10:35:37;;;;;;;36.73;19.03;;;;;;;-0.55;100.00;101611.63;5022606;28;20796;-71
2021/12/12 10:38:09;;;;;;;34.27;17.10;;;;;;;-0.51;100.00;101610.94;5021830;28;20222;-71
2021/12/12 10:40:39;;;;;;;45.60;22.97;;;;;;;-0.47;100.00;101610.22;5018257;28;20228;-71
2021/12/12 10:43:12;;;;;;;33.27;17.07;;;;;;;-0.45;100.00;101605.16;5025453;28;20218;-71
2021/12/12 10:45:45;;;;;;;35.27;17.83;;;;;;;-0.42;100.00;101613.81;5022219;28;20547;-71
2021/12/12 10:48:16;;;;;;;35.53;17.23;;;;;;;-0.33;100.00;101613.25;5020753;28;20664;-71
2021/12/12 10:50:52;;;;;;;35.90;17.17;;;;;;;-0.29;100.00;101614.25;5021962;28;20228;-71
2021/12/12 10:53:27;;;;;;;36.70;17.10;;;;;;;-0.26;100.00;101615.22;5022811;28;20216;-71
2021/12/12 10:56:00;;;;;;;36.20;17.03;;;;;;;-0.14;100.00;101616.44;5019850;28;20207;-70
2021/12/12 10:58:36;;;;;;;37.00;17.87;;;;;;;-0.12;100.00;101620.81;5018289;28;20697;-69
2021/12/12 11:01:07;;;;;;;33.40;16.77;;;;;;;-0.08;100.00;101619.22;5023251;28;20202;-71
2021/12/12 11:03:37;;;;;;;35.70;17.10;;;;;;;0.01;100.00;101611.81;5018449;28;20262;-69
2021/12/12 11:06:09;;;;;;;35.30;17.20;;;;;;;0.06;100.00;101612.84;5020303;28;20196;-71
2021/12/12 11:08:38;;;;;;;33.43;16.80;;;;;;;0.07;100.00;101609.47;5022290;28;20202;-72
2021/12/12 11:11:13;;;;;;;33.47;16.03;;;;;;;0.10;100.00;101612.13;5018735;28;20203;-71
2021/12/12 11:13:43;;;;;;;38.20;17.10;;;;;;;0.16;100.00;101616.59;5022295;28;20205;-72
2021/12/12 11:16:14;;;;;;;37.30;16.83;;;;;;;0.15;100.00;101623.41;5022080;28;20214;-72
2021/12/12 11:18:45;;;;;;;36.27;16.23;;;;;;;0.20;100.00;101622.69;5023611;28;20376;-72
2021/12/12 11:21:17;;;;;;;34.07;16.87;;;;;;;0.26;100.00;101617.75;5023186;28;20719;-72
2021/12/12 11:23:51;;;;;;;32.33;17.00;;;;;;;0.29;100.00;101615.28;5024463;28;20196;-71
2021/12/12 11:26:20;;;;;;;35.30;16.23;;;;;;;0.40;100.00;101620.75;5024301;28;20781;-71
2021/12/12 11:28:52;;;;;;;34.83;16.07;;;;;;;0.45;100.00;101619.19;5022965;28;20226;-71
2021/12/12 11:31:24;;;;;;;30.57;14.70;;;;;;;0.46;100.00;101606.44;5021683;28;20204;-72
2021/12/12 11:33:53;;;;;;;34.00;15.20;;;;;;;0.48;100.00;101609.91;5025162;28;20649;-70